Absecon Highlands, New Jersey
Current Conditions -  °F | °C
As of 8:54 PM on Friday 21 Nov 2014 (Local Time) from KACY Reporting Station
Clear Clear  
Wind Chill: 22°   Ceiling: Unl
Heat Index: 28°   Visibility: 10mi
Dew Point: 11°   Wind: 6mph
Humidity: 49%   Direction: 260°W
Pressure: 30.53"   Gusts: NA
Location:  39.4315°N, 74.5003°W
Report Text: KACY 220154Z 26005KT 10SM CLR M02/M12 A3053 RMK AO2 SLP338 T10221117
Loading
Personal Weather Stations






























Interactive Weather Map New forecast layout! Learn more

10-Day Weather Forecast

Advertisements
Track Severe Weather on mobile